Time;durP1;ratioP1;P1;durP2;ratioP2;P2;SDS_P1;SDS_P2;PMS_P1;PMS_P2;Temp;Humidity;BMP_temperature;BMP_pressure;BME280_temperature;BME280_humidity;BME280_pressure;Samples;Min_cycle;Max_cycle;Signal;HPM_P1;HPM_P2
2020/12/27 00:02:13;;;;;;;23.63;22.25;;;;;;;;;;5010122;28;20206;-87
2020/12/27 00:04:40;;;;;;;23.55;22.05;;;;;;;;;;5007682;28;20209;-87
2020/12/27 00:07:08;;;;;;;24.45;23.05;;;;;;;;;;5005746;28;20201;-87
2020/12/27 00:09:35;;;;;;;23.65;22.35;;;;;;;;;;5006567;28;20214;-86
2020/12/27 00:12:02;;;;;;;23.63;22.02;;;;;;;;;;5008001;28;20207;-87
2020/12/27 00:14:29;;;;;;;23.08;21.77;;;;;;;;;;5007232;28;20210;-86
2020/12/27 00:16:56;;;;;;;23.08;21.65;;;;;;;;;;5007217;28;20207;-86
2020/12/27 00:19:24;;;;;;;23.85;22.42;;;;;;;;;;5006913;28;20284;-86
2020/12/27 00:21:51;;;;;;;22.70;21.40;;;;;;;;;;5007213;28;20198;-86
2020/12/27 00:24:17;;;;;;;22.67;21.27;;;;;;;;;;5008297;28;20225;-87
2020/12/27 00:26:44;;;;;;;23.27;21.90;;;;;;;;;;5006016;28;20199;-87
2020/12/27 00:29:11;;;;;;;23.70;22.30;;;;;;;;;;5007926;28;20212;-87
2020/12/27 00:31:38;;;;;;;23.20;21.80;;;;;;;;;;5007593;28;20207;-87
2020/12/27 00:34:05;;;;;;;23.17;21.77;;;;;;;;;;5005358;28;20212;-86
2020/12/27 00:36:33;;;;;;;23.45;22.15;;;;;;;;;;5007114;28;20209;-87
2020/12/27 00:39:00;;;;;;;23.67;22.27;;;;;;;;;;5006440;28;20218;-86
2020/12/27 00:41:27;;;;;;;23.42;21.70;;;;;;;;;;5008301;28;20205;-86
2020/12/27 00:43:54;;;;;;;22.88;21.58;;;;;;;;;;5006237;28;20205;-86
2020/12/27 00:46:21;;;;;;;23.17;21.77;;;;;;;;;;5006682;28;20218;-85
2020/12/27 00:48:49;;;;;;;21.85;20.65;;;;;;;;;;5007378;28;20213;-86
2020/12/27 00:51:20;;;;;;;22.30;21.00;;;;;;;;;;5004995;28;20226;-87
2020/12/27 00:53:48;;;;;;;22.77;21.48;;;;;;;;;;5007284;28;20203;-88
2020/12/27 00:56:15;;;;;;;22.58;21.27;;;;;;;;;;5005107;28;20550;-86
2020/12/27 00:58:43;;;;;;;23.20;21.85;;;;;;;;;;5005696;28;20237;-87
2020/12/27 01:01:10;;;;;;;22.80;21.50;;;;;;;;;;5007981;28;20212;-87
2020/12/27 01:03:37;;;;;;;23.55;22.15;;;;;;;;;;5006774;28;20219;-87
2020/12/27 01:06:04;;;;;;;22.38;21.08;;;;;;;;;;5007189;28;20199;-84
2020/12/27 01:08:31;;;;;;;23.35;22.05;;;;;;;;;;5006271;28;20271;-86
2020/12/27 01:11:01;;;;;;;22.65;21.25;;;;;;;;;;5006162;28;20603;-86
2020/12/27 01:13:27;;;;;;;22.95;21.55;;;;;;;;;;5006693;28;20207;-86
2020/12/27 01:15:55;;;;;;;22.45;21.15;;;;;;;;;;5005834;28;20221;-87
2020/12/27 01:18:22;;;;;;;22.45;21.15;;;;;;;;;;5006042;28;20643;-86
2020/12/27 01:20:49;;;;;;;23.23;21.83;;;;;;;;;;5006144;28;20222;-86
2020/12/27 01:23:15;;;;;;;24.13;22.40;;;;;;;;;;5005901;28;20214;-87
2020/12/27 01:25:46;;;;;;;23.02;21.73;;;;;;;;;;5005218;28;20235;-86
2020/12/27 01:28:13;;;;;;;23.23;21.83;;;;;;;;;;5007089;28;20213;-86
2020/12/27 01:30:40;;;;;;;22.77;21.48;;;;;;;;;;5010131;28;20652;-86
2020/12/27 01:33:07;;;;;;;22.92;21.45;;;;;;;;;;5010442;28;20210;-87
2020/12/27 01:35:34;;;;;;;23.15;21.55;;;;;;;;;;5009466;28;20268;-86
2020/12/27 01:38:01;;;;;;;22.63;21.15;;;;;;;;;;5011316;28;20217;-87
2020/12/27 01:40:28;;;;;;;22.55;21.05;;;;;;;;;;5009631;28;20210;-86
2020/12/27 01:42:56;;;;;;;22.00;20.75;;;;;;;;;;5008688;28;20205;-86
2020/12/27 01:45:24;;;;;;;22.17;20.88;;;;;;;;;;5010182;28;20210;-86
2020/12/27 01:47:52;;;;;;;22.52;21.02;;;;;;;;;;5009005;28;20202;-86
2020/12/27 01:50:19;;;;;;;22.08;20.65;;;;;;;;;;5009460;28;20222;-86
2020/12/27 01:52:46;;;;;;;21.80;20.50;;;;;;;;;;5010196;28;20213;-87
2020/12/27 01:55:13;;;;;;;22.02;20.63;;;;;;;;;;5010609;28;20263;-86
2020/12/27 01:57:49;;;;;;;22.15;20.85;;;;;;;;;;5009775;28;20294;-85
2020/12/27 02:00:16;;;;;;;22.90;21.42;;;;;;;;;;5007110;28;20255;-86
2020/12/27 02:02:44;;;;;;;23.33;21.90;;;;;;;;;;5008878;28;20643;-86
2020/12/27 02:05:11;;;;;;;23.08;21.67;;;;;;;;;;5008138;28;20209;-87
2020/12/27 02:07:38;;;;;;;22.15;20.85;;;;;;;;;;5011276;28;20241;-86
2020/12/27 02:10:05;;;;;;;22.90;21.50;;;;;;;;;;5009358;28;20207;-86
2020/12/27 02:12:32;;;;;;;22.70;21.30;;;;;;;;;;5006033;28;20213;-87
2020/12/27 02:14:59;;;;;;;23.30;21.80;;;;;;;;;;5006937;28;20217;-86
2020/12/27 02:17:26;;;;;;;23.10;21.70;;;;;;;;;;5006560;28;20206;-87
2020/12/27 02:19:54;;;;;;;22.65;21.35;;;;;;;;;;5006890;28;20236;-86
2020/12/27 02:22:21;;;;;;;23.15;21.75;;;;;;;;;;5015510;28;20201;-87
2020/12/27 02:24:49;;;;;;;22.50;21.20;;;;;;;;;;5017760;28;20213;-86
2020/12/27 02:27:16;;;;;;;23.15;21.75;;;;;;;;;;5017666;28;20198;-86
2020/12/27 02:29:43;;;;;;;22.90;21.52;;;;;;;;;;5017351;28;20214;-86
2020/12/27 02:32:10;;;;;;;23.27;21.55;;;;;;;;;;5017072;28;20271;-86
2020/12/27 02:34:37;;;;;;;23.63;22.13;;;;;;;;;;5017435;28;20204;-87
2020/12/27 02:37:04;;;;;;;22.60;21.20;;;;;;;;;;5017349;28;20218;-87
2020/12/27 02:39:31;;;;;;;22.20;20.80;;;;;;;;;;5016430;28;20215;-86
2020/12/27 02:41:59;;;;;;;22.17;20.88;;;;;;;;;;5017466;28;20232;-87
2020/12/27 02:44:26;;;;;;;23.98;22.27;;;;;;;;;;5016048;28;20205;-88
2020/12/27 02:46:52;;;;;;;23.08;21.58;;;;;;;;;;5016970;28;20194;-89
2020/12/27 02:49:19;;;;;;;23.45;21.95;;;;;;;;;;5017190;28;20202;-86
2020/12/27 02:51:46;;;;;;;23.42;22.02;;;;;;;;;;5016914;28;20221;-86
2020/12/27 02:54:13;;;;;;;23.08;21.77;;;;;;;;;;5016618;28;20197;-87
2020/12/27 02:56:40;;;;;;;22.63;21.30;;;;;;;;;;5016395;28;20209;-85
2020/12/27 02:59:08;;;;;;;22.00;20.70;;;;;;;;;;5017197;28;20617;-86
2020/12/27 03:01:35;;;;;;;22.80;21.30;;;;;;;;;;5018118;28;20186;-87
2020/12/27 03:04:01;;;;;;;21.83;20.63;;;;;;;;;;5016595;28;20202;-86
2020/12/27 03:06:28;;;;;;;22.02;20.75;;;;;;;;;;5017577;28;20543;-87
2020/12/27 03:08:55;;;;;;;21.70;20.40;;;;;;;;;;5016444;28;20700;-86
2020/12/27 03:11:23;;;;;;;21.80;20.50;;;;;;;;;;4999457;28;20205;-86
2020/12/27 03:13:50;;;;;;;21.95;20.65;;;;;;;;;;5016444;28;20219;-86
2020/12/27 03:16:18;;;;;;;22.05;20.85;;;;;;;;;;5014988;28;20207;-86
2020/12/27 03:18:44;;;;;;;21.50;20.20;;;;;;;;;;5016663;28;20213;-86
2020/12/27 03:21:11;;;;;;;21.85;20.55;;;;;;;;;;5016388;28;20649;-86
2020/12/27 03:23:38;;;;;;;22.90;21.40;;;;;;;;;;5016393;28;20198;-87
2020/12/27 03:26:06;;;;;;;22.48;21.08;;;;;;;;;;5016519;28;20202;-86
2020/12/27 03:28:33;;;;;;;22.75;21.45;;;;;;;;;;5016677;28;20189;-87
2020/12/27 03:30:59;;;;;;;22.25;20.95;;;;;;;;;;5016510;28;20194;-86
2020/12/27 03:33:27;;;;;;;22.95;21.75;;;;;;;;;;5016245;28;20194;-87
2020/12/27 03:35:55;;;;;;;22.23;21.00;;;;;;;;;;5016191;28;20202;-86
2020/12/27 03:38:21;;;;;;;22.48;21.27;;;;;;;;;;5016122;28;20229;-87
2020/12/27 03:40:48;;;;;;;21.92;20.73;;;;;;;;;;5016300;28;20576;-87
2020/12/27 03:43:15;;;;;;;22.52;21.13;;;;;;;;;;5016200;28;20197;-87
2020/12/27 03:45:42;;;;;;;22.67;21.38;;;;;;;;;;5016279;28;20213;-86
2020/12/27 03:48:09;;;;;;;22.70;21.40;;;;;;;;;;5016492;28;20241;-86
2020/12/27 03:50:38;;;;;;;21.75;20.55;;;;;;;;;;5016231;28;20196;-86
2020/12/27 03:53:06;;;;;;;22.17;20.98;;;;;;;;;;5015978;28;20206;-86
2020/12/27 03:55:32;;;;;;;22.75;21.45;;;;;;;;;;5015642;28;20641;-86
2020/12/27 03:57:59;;;;;;;22.55;21.15;;;;;;;;;;5015917;28;20218;-86
2020/12/27 04:00:29;;;;;;;23.00;21.70;;;;;;;;;;5015900;28;20196;-86
2020/12/27 04:02:56;;;;;;;22.63;21.42;;;;;;;;;;5015844;28;20191;-86
2020/12/27 04:05:23;;;;;;;22.20;20.90;;;;;;;;;;5015418;28;20186;-86
2020/12/27 04:07:51;;;;;;;22.40;21.10;;;;;;;;;;5015391;28;20231;-87
2020/12/27 04:10:18;;;;;;;22.42;21.13;;;;;;;;;;5015836;28;20236;-86
2020/12/27 04:12:46;;;;;;;22.23;20.90;;;;;;;;;;5014510;28;20194;-86
2020/12/27 04:15:13;;;;;;;22.33;21.00;;;;;;;;;;5015112;28;20707;-85
2020/12/27 04:17:40;;;;;;;21.50;20.20;;;;;;;;;;5015407;28;20218;-86
2020/12/27 04:20:07;;;;;;;22.90;21.50;;;;;;;;;;5016084;28;20225;-86
2020/12/27 04:22:34;;;;;;;21.60;20.30;;;;;;;;;;5015304;28;20203;-86
2020/12/27 04:25:02;;;;;;;22.13;20.83;;;;;;;;;;5015342;28;20572;-85
2020/12/27 04:27:28;;;;;;;21.30;20.10;;;;;;;;;;5015859;28;20209;-85
2020/12/27 04:29:55;;;;;;;21.48;20.25;;;;;;;;;;5015130;28;20287;-85
2020/12/27 04:32:24;;;;;;;21.73;20.42;;;;;;;;;;5014946;28;20628;-86
2020/12/27 04:34:51;;;;;;;21.52;20.33;;;;;;;;;;5015401;28;20660;-86
2020/12/27 04:37:18;;;;;;;21.70;20.40;;;;;;;;;;5015096;28;20190;-86
2020/12/27 04:39:45;;;;;;;21.60;20.30;;;;;;;;;;5014212;28;20279;-85
2020/12/27 04:42:14;;;;;;;22.13;20.73;;;;;;;;;;5015145;28;20194;-86
2020/12/27 04:44:41;;;;;;;21.95;20.40;;;;;;;;;;5013583;28;20661;-85
2020/12/27 04:47:09;;;;;;;21.70;20.50;;;;;;;;;;5014998;28;20186;-86
2020/12/27 04:49:36;;;;;;;21.98;20.77;;;;;;;;;;5015217;28;20195;-85
2020/12/27 04:52:03;;;;;;;20.98;19.77;;;;;;;;;;5013686;28;20201;-86
2020/12/27 04:54:31;;;;;;;22.83;21.05;;;;;;;;;;5014891;28;20213;-85
2020/12/27 04:56:58;;;;;;;21.85;20.45;;;;;;;;;;5014656;28;20189;-85
2020/12/27 04:59:26;;;;;;;22.10;20.90;;;;;;;;;;5014956;28;20240;-86
2020/12/27 05:01:54;;;;;;;22.00;20.80;;;;;;;;;;5015055;28;20548;-85
2020/12/27 05:04:23;;;;;;;22.10;20.83;;;;;;;;;;5014568;28;20710;-86
2020/12/27 05:06:51;;;;;;;21.10;19.90;;;;;;;;;;5013868;28;20201;-86
2020/12/27 05:09:18;;;;;;;21.17;19.98;;;;;;;;;;5013495;28;20326;-85
2020/12/27 05:11:45;;;;;;;21.50;20.30;;;;;;;;;;5014713;28;20243;-86
2020/12/27 05:14:11;;;;;;;22.50;21.30;;;;;;;;;;5014027;28;20209;-85
2020/12/27 05:16:39;;;;;;;21.15;20.02;;;;;;;;;;5014866;28;20193;-87
2020/12/27 05:19:06;;;;;;;21.80;20.60;;;;;;;;;;5014979;28;20213;-86
2020/12/27 05:21:37;;;;;;;21.33;20.13;;;;;;;;;;5015112;28;20205;-85
2020/12/27 05:24:05;;;;;;;22.63;21.33;;;;;;;;;;5014757;28;20213;-85
2020/12/27 05:26:32;;;;;;;21.80;20.60;;;;;;;;;;5014695;28;20224;-85
2020/12/27 05:28:59;;;;;;;21.23;19.90;;;;;;;;;;5015044;28;20570;-86
2020/12/27 05:31:29;;;;;;;21.30;20.10;;;;;;;;;;5014784;28;20190;-86
2020/12/27 05:33:57;;;;;;;21.15;20.05;;;;;;;;;;5014568;28;20523;-86
2020/12/27 05:36:24;;;;;;;22.20;21.00;;;;;;;;;;5014386;28;20190;-85
2020/12/27 05:38:50;;;;;;;21.52;20.33;;;;;;;;;;5014013;28;20691;-85
2020/12/27 05:41:24;;;;;;;21.80;20.50;;;;;;;;;;5014764;28;20197;-85
2020/12/27 05:43:59;;;;;;;21.40;20.20;;;;;;;;;;5014284;28;20545;-85
2020/12/27 05:46:26;;;;;;;21.45;20.25;;;;;;;;;;5013982;28;20232;-85
2020/12/27 05:48:54;;;;;;;21.63;20.42;;;;;;;;;;5014462;28;20224;-86
2020/12/27 05:51:23;;;;;;;21.20;20.00;;;;;;;;;;5013409;28;20209;-85
2020/12/27 05:53:51;;;;;;;21.33;20.13;;;;;;;;;;5014423;28;20198;-86
2020/12/27 05:56:21;;;;;;;21.52;20.27;;;;;;;;;;5014193;28;20214;-85
2020/12/27 05:58:48;;;;;;;21.25;20.05;;;;;;;;;;5014398;28;20217;-86
2020/12/27 06:01:22;;;;;;;21.50;20.30;;;;;;;;;;5014047;28;20194;-85
2020/12/27 06:03:56;;;;;;;21.92;20.73;;;;;;;;;;5014127;28;20217;-86
2020/12/27 06:06:42;;;;;;;22.02;20.83;;;;;;;;;;5014296;28;20193;-86
2020/12/27 06:09:09;;;;;;;23.23;21.85;;;;;;;;;;5013856;28;20602;-87
2020/12/27 06:11:54;;;;;;;21.73;20.52;;;;;;;;;;5013480;28;20236;-85
2020/12/27 06:14:39;;;;;;;22.85;21.55;;;;;;;;;;5014269;28;20209;-86
2020/12/27 06:17:10;;;;;;;22.25;20.95;;;;;;;;;;5017569;28;20190;-86
2020/12/27 06:19:47;;;;;;;21.67;20.48;;;;;;;;;;5017601;28;20296;-86
2020/12/27 06:22:20;;;;;;;21.70;20.50;;;;;;;;;;5017486;28;20196;-86
2020/12/27 06:24:47;;;;;;;22.13;20.58;;;;;;;;;;5017293;28;20256;-87
2020/12/27 06:27:14;;;;;;;22.05;20.85;;;;;;;;;;5017822;28;20194;-86
2020/12/27 06:29:42;;;;;;;21.70;20.50;;;;;;;;;;5017278;28;20194;-86
2020/12/27 06:32:12;;;;;;;21.65;20.45;;;;;;;;;;5017558;28;20277;-86
2020/12/27 06:34:39;;;;;;;21.20;20.00;;;;;;;;;;5018014;28;20201;-86
2020/12/27 06:37:07;;;;;;;21.95;20.75;;;;;;;;;;5017338;28;20632;-86
2020/12/27 06:39:35;;;;;;;22.55;21.25;;;;;;;;;;5017120;28;20240;-86
2020/12/27 06:42:05;;;;;;;22.23;21.02;;;;;;;;;;5017162;28;20276;-86
2020/12/27 06:44:39;;;;;;;21.55;20.25;;;;;;;;;;5015733;28;20632;-86
2020/12/27 06:47:06;;;;;;;21.67;20.38;;;;;;;;;;5016849;28;20237;-87
2020/12/27 06:49:33;;;;;;;21.48;20.27;;;;;;;;;;5017035;28;20190;-85
2020/12/27 06:52:16;;;;;;;21.55;20.35;;;;;;;;;;5016921;28;20218;-86
2020/12/27 06:54:46;;;;;;;22.42;21.08;;;;;;;;;;5015603;28;20289;-86
2020/12/27 06:57:39;;;;;;;22.27;20.92;;;;;;;;;;5016548;28;20575;-85
2020/12/27 07:00:18;;;;;;;21.17;19.98;;;;;;;;;;5016469;28;20232;-86
2020/12/27 07:02:46;;;;;;;21.48;20.25;;;;;;;;;;5015770;28;20572;-86
2020/12/27 07:05:26;;;;;;;21.02;19.92;;;;;;;;;;5016849;28;20217;-87
2020/12/27 07:07:53;;;;;;;22.15;20.85;;;;;;;;;;5015693;28;20234;-86
2020/12/27 07:10:23;;;;;;;21.17;19.98;;;;;;;;;;5016775;28;20206;-86
2020/12/27 07:12:50;;;;;;;20.55;19.35;;;;;;;;;;5016335;28;20203;-86
2020/12/27 07:15:17;;;;;;;21.33;19.75;;;;;;;;;;5016475;28;20194;-87
2020/12/27 07:17:45;;;;;;;20.13;19.02;;;;;;;;;;5016765;28;20190;-86
2020/12/27 07:20:15;;;;;;;21.05;19.85;;;;;;;;;;5016855;28;20229;-86
2020/12/27 07:22:43;;;;;;;20.80;19.60;;;;;;;;;;5016627;28;20217;-86
2020/12/27 07:25:13;;;;;;;21.45;19.70;;;;;;;;;;5016295;28;20193;-86
2020/12/27 07:27:42;;;;;;;21.08;19.88;;;;;;;;;;5016608;28;20214;-86
2020/12/27 07:30:09;;;;;;;21.65;20.45;;;;;;;;;;5016544;28;20198;-86
2020/12/27 07:32:41;;;;;;;21.73;20.52;;;;;;;;;;5016431;28;20210;-87
2020/12/27 07:35:10;;;;;;;22.27;21.08;;;;;;;;;;5016088;28;20198;-88
2020/12/27 07:37:37;;;;;;;21.85;20.65;;;;;;;;;;5017097;28;20197;-87
2020/12/27 07:40:05;;;;;;;21.80;20.60;;;;;;;;;;5016288;28;20214;-87
2020/12/27 07:42:32;;;;;;;21.45;20.25;;;;;;;;;;5015813;28;20600;-87
2020/12/27 07:45:01;;;;;;;20.88;19.67;;;;;;;;;;5015716;28;20677;-88
2020/12/27 07:47:29;;;;;;;22.08;20.80;;;;;;;;;;5015847;28;20191;-87
2020/12/27 07:50:06;;;;;;;21.98;20.67;;;;;;;;;;5016095;28;20237;-87
2020/12/27 07:52:47;;;;;;;21.48;20.17;;;;;;;;;;5015451;28;20656;-87
2020/12/27 07:55:27;;;;;;;20.63;19.45;;;;;;;;;;5016114;28;20194;-87
2020/12/27 07:57:55;;;;;;;21.48;20.17;;;;;;;;;;5016002;28;20666;-89
2020/12/27 08:00:27;;;;;;;22.00;20.80;;;;;;;;;;5014751;28;20233;-86
2020/12/27 08:02:54;;;;;;;22.92;21.52;;;;;;;;;;5015641;28;20195;-87
2020/12/27 08:05:21;;;;;;;21.45;20.25;;;;;;;;;;5015320;28;20191;-87
2020/12/27 08:07:48;;;;;;;22.00;20.80;;;;;;;;;;5015236;28;20237;-87
2020/12/27 08:10:19;;;;;;;22.33;21.13;;;;;;;;;;5015473;28;20193;-87
2020/12/27 08:12:50;;;;;;;21.50;20.20;;;;;;;;;;5015656;28;20201;-87
2020/12/27 08:15:16;;;;;;;21.38;20.17;;;;;;;;;;5015995;28;20190;-87
2020/12/27 08:17:58;;;;;;;22.08;20.58;;;;;;;;;;5015663;28;20240;-87
2020/12/27 08:20:25;;;;;;;21.80;20.60;;;;;;;;;;5012784;28;20643;-85
2020/12/27 08:23:02;;;;;;;21.88;20.67;;;;;;;;;;5013902;28;20259;-82
2020/12/27 08:25:29;;;;;;;22.00;20.80;;;;;;;;;;5015066;28;20240;-80
2020/12/27 08:27:57;;;;;;;21.98;20.73;;;;;;;;;;5014431;28;20631;-81
2020/12/27 08:30:25;;;;;;;22.20;21.00;;;;;;;;;;5014011;28;20201;-80
2020/12/27 08:33:03;;;;;;;22.42;21.17;;;;;;;;;;5015324;28;20194;-81
2020/12/27 08:35:30;;;;;;;21.83;20.63;;;;;;;;;;5014990;28;20194;-80
2020/12/27 08:38:04;;;;;;;21.60;20.40;;;;;;;;;;5014917;28;20526;-82
2020/12/27 08:40:33;;;;;;;21.63;20.42;;;;;;;;;;5014750;28;20595;-81
2020/12/27 08:43:04;;;;;;;21.85;20.50;;;;;;;;;;5015090;28;20190;-81
2020/12/27 08:45:36;;;;;;;21.40;20.30;;;;;;;;;;5014667;28;20680;-80
2020/12/27 08:48:10;;;;;;;21.58;20.40;;;;;;;;;;5014891;28;20286;-81
2020/12/27 08:50:42;;;;;;;21.65;20.45;;;;;;;;;;5013544;28;20253;-81
2020/12/27 08:53:10;;;;;;;22.20;20.90;;;;;;;;;;5014801;28;20547;-82
2020/12/27 08:55:38;;;;;;;21.40;20.20;;;;;;;;;;5013693;28;20259;-82
2020/12/27 08:58:11;;;;;;;22.23;20.90;;;;;;;;;;5013442;28;20678;-81
2020/12/27 09:00:39;;;;;;;21.70;20.50;;;;;;;;;;4997516;28;20234;-81
2020/12/27 09:03:07;;;;;;;20.92;19.73;;;;;;;;;;5014733;28;20190;-81
2020/12/27 09:05:43;;;;;;;19.63;18.52;;;;;;;;;;5014492;28;20190;-81
2020/12/27 09:08:18;;;;;;;22.08;20.75;;;;;;;;;;5010723;28;20230;-79
2020/12/27 09:10:45;;;;;;;22.90;21.50;;;;;;;;;;5007751;28;20190;-80
2020/12/27 09:13:13;;;;;;;21.90;20.60;;;;;;;;;;5004570;28;20205;-80
2020/12/27 09:15:40;;;;;;;23.13;21.55;;;;;;;;;;5004532;28;20551;-79
2020/12/27 09:18:08;;;;;;;21.60;20.35;;;;;;;;;;5002304;28;20194;-80
2020/12/27 09:20:37;;;;;;;21.65;20.45;;;;;;;;;;5008956;28;20198;-79
2020/12/27 09:23:12;;;;;;;22.38;21.02;;;;;;;;;;4996451;28;20274;-80
2020/12/27 09:25:39;;;;;;;22.20;21.00;;;;;;;;;;4994649;28;20551;-80
2020/12/27 09:28:12;;;;;;;23.25;21.95;;;;;;;;;;4977422;28;20616;-79
2020/12/27 09:30:40;;;;;;;21.58;20.38;;;;;;;;;;4994215;28;20200;-81
2020/12/27 09:33:07;;;;;;;21.92;20.73;;;;;;;;;;4994342;28;20219;-80
2020/12/27 09:35:33;;;;;;;20.40;19.20;;;;;;;;;;4994634;28;20192;-79
2020/12/27 09:38:01;;;;;;;21.05;19.85;;;;;;;;;;4994263;28;20642;-80
2020/12/27 09:40:29;;;;;;;21.83;20.63;;;;;;;;;;4994341;28;20238;-79
2020/12/27 09:43:03;;;;;;;21.33;19.92;;;;;;;;;;4994096;28;20680;-80
2020/12/27 09:45:32;;;;;;;21.30;20.00;;;;;;;;;;4993945;28;20301;-79
2020/12/27 09:48:00;;;;;;;21.77;20.58;;;;;;;;;;4994345;28;20198;-81
2020/12/27 09:50:30;;;;;;;22.05;20.85;;;;;;;;;;4998068;28;20215;-84
2020/12/27 09:53:00;;;;;;;22.50;21.20;;;;;;;;;;4998686;28;20294;-85
2020/12/27 09:55:28;;;;;;;23.05;21.65;;;;;;;;;;4998655;28;20191;-84
2020/12/27 09:57:55;;;;;;;21.73;20.52;;;;;;;;;;4998185;28;20645;-86
2020/12/27 10:00:22;;;;;;;22.35;21.00;;;;;;;;;;4998192;28;20273;-85
2020/12/27 10:02:49;;;;;;;21.10;19.80;;;;;;;;;;4997146;28;20199;-85
2020/12/27 10:05:16;;;;;;;20.80;19.60;;;;;;;;;;4997964;28;20211;-82
2020/12/27 10:07:44;;;;;;;21.23;19.83;;;;;;;;;;4997901;28;20235;-83
2020/12/27 10:10:11;;;;;;;20.27;19.08;;;;;;;;;;4998385;28;20192;-82
2020/12/27 10:12:39;;;;;;;21.40;20.00;;;;;;;;;;4998325;28;20195;-83
2020/12/27 10:15:08;;;;;;;21.33;20.13;;;;;;;;;;4997626;28;20196;-81
2020/12/27 10:17:35;;;;;;;21.20;20.00;;;;;;;;;;4998160;28;20207;-82
2020/12/27 10:20:02;;;;;;;21.38;20.08;;;;;;;;;;4997747;28;20219;-82
2020/12/27 10:22:29;;;;;;;21.35;20.05;;;;;;;;;;4997373;28;20199;-82
2020/12/27 10:24:56;;;;;;;21.25;19.95;;;;;;;;;;4998385;28;20546;-83
2020/12/27 10:27:24;;;;;;;21.80;20.50;;;;;;;;;;4996740;28;20203;-83
2020/12/27 10:29:52;;;;;;;20.95;19.65;;;;;;;;;;4997493;28;20697;-83
2020/12/27 10:32:19;;;;;;;21.33;20.10;;;;;;;;;;4997001;28;20207;-83
2020/12/27 10:34:46;;;;;;;21.88;20.58;;;;;;;;;;4997503;28;20188;-82
2020/12/27 10:37:13;;;;;;;22.40;20.92;;;;;;;;;;4998293;28;20525;-83
2020/12/27 10:39:40;;;;;;;21.75;20.45;;;;;;;;;;4999158;28;20810;-82
2020/12/27 10:42:06;;;;;;;22.73;21.42;;;;;;;;;;4997525;28;20282;-82
2020/12/27 10:44:33;;;;;;;22.95;21.55;;;;;;;;;;4997641;28;20278;-82
2020/12/27 10:47:01;;;;;;;22.55;21.15;;;;;;;;;;4998519;28;20199;-83
2020/12/27 10:49:28;;;;;;;22.17;20.85;;;;;;;;;;4997469;28;20196;-82
2020/12/27 10:51:55;;;;;;;23.02;21.63;;;;;;;;;;4996891;28;20207;-82
2020/12/27 10:54:22;;;;;;;22.25;20.85;;;;;;;;;;4996800;28;20196;-81
2020/12/27 10:56:52;;;;;;;23.88;22.35;;;;;;;;;;4997624;28;20286;-81
2020/12/27 10:59:19;;;;;;;22.10;20.80;;;;;;;;;;4996822;28;20274;-80
2020/12/27 11:01:47;;;;;;;21.58;20.27;;;;;;;;;;4995059;28;20210;-82
2020/12/27 11:04:15;;;;;;;23.55;21.88;;;;;;;;;;4995142;28;20259;-80
2020/12/27 11:06:42;;;;;;;22.73;21.33;;;;;;;;;;4996273;28;20187;-79
2020/12/27 11:09:09;;;;;;;22.30;21.00;;;;;;;;;;4995999;28;20580;-78
2020/12/27 11:11:37;;;;;;;22.92;21.50;;;;;;;;;;4996438;28;20195;-78
2020/12/27 11:14:05;;;;;;;21.83;20.52;;;;;;;;;;4996094;28;20537;-79
2020/12/27 11:16:32;;;;;;;21.63;20.33;;;;;;;;;;4996115;28;20704;-78
2020/12/27 11:18:59;;;;;;;22.30;20.45;;;;;;;;;;4996355;28;20278;-81
2020/12/27 11:21:27;;;;;;;22.33;21.02;;;;;;;;;;4996774;28;20668;-85
2020/12/27 11:23:54;;;;;;;23.33;21.92;;;;;;;;;;4997002;28;20191;-81
2020/12/27 11:26:21;;;;;;;21.80;20.60;;;;;;;;;;4996233;28;20191;-80
2020/12/27 11:28:48;;;;;;;23.10;21.70;;;;;;;;;;4996426;28;20195;-80
2020/12/27 11:31:16;;;;;;;23.17;21.80;;;;;;;;;;4996124;28;20187;-81
2020/12/27 11:33:44;;;;;;;23.00;21.60;;;;;;;;;;4995063;28;20199;-79
2020/12/27 11:36:11;;;;;;;23.98;22.48;;;;;;;;;;4996302;28;20222;-80
2020/12/27 11:38:39;;;;;;;23.20;21.85;;;;;;;;;;4996000;28;20194;-81
2020/12/27 11:41:05;;;;;;;22.58;21.17;;;;;;;;;;4996215;28;20309;-81
2020/12/27 11:43:32;;;;;;;23.10;21.70;;;;;;;;;;4995869;28;20582;-81
2020/12/27 11:45:59;;;;;;;23.33;21.92;;;;;;;;;;4995982;28;20192;-81
2020/12/27 11:48:26;;;;;;;22.75;21.25;;;;;;;;;;4995974;28;20684;-80
2020/12/27 11:50:53;;;;;;;23.00;21.60;;;;;;;;;;4995748;28;20195;-81
2020/12/27 11:53:20;;;;;;;22.77;21.45;;;;;;;;;;4995939;28;20206;-81
2020/12/27 11:55:48;;;;;;;23.20;21.70;;;;;;;;;;4996017;28;20235;-81
2020/12/27 11:58:15;;;;;;;23.27;21.88;;;;;;;;;;4995787;28;20202;-81
2020/12/27 12:00:42;;;;;;;22.63;21.25;;;;;;;;;;4995903;28;20215;-81
2020/12/27 12:03:08;;;;;;;21.42;20.17;;;;;;;;;;4995731;28;20212;-80
2020/12/27 12:05:35;;;;;;;21.88;20.58;;;;;;;;;;4995726;28;20203;-81
2020/12/27 12:08:02;;;;;;;22.75;21.45;;;;;;;;;;4995871;28;20238;-84
2020/12/27 12:10:29;;;;;;;22.60;21.30;;;;;;;;;;4995184;28;20200;-86
2020/12/27 12:12:57;;;;;;;23.27;21.88;;;;;;;;;;4993867;28;20204;-84
2020/12/27 12:15:24;;;;;;;22.52;21.10;;;;;;;;;;4995102;28;20210;-84
2020/12/27 12:17:51;;;;;;;22.95;21.55;;;;;;;;;;4996065;28;20278;-84
2020/12/27 12:23:03;;;;;;;23.02;21.73;;;;;;;;;;4995501;28;20270;-83
2020/12/27 12:25:29;;;;;;;22.63;21.27;;;;;;;;;;4995563;28;20194;-83
2020/12/27 12:27:57;;;;;;;22.45;21.15;;;;;;;;;;4995204;28;20202;-82
2020/12/27 12:30:24;;;;;;;21.98;20.67;;;;;;;;;;4995415;28;20229;-86
2020/12/27 12:32:51;;;;;;;23.55;21.92;;;;;;;;;;4995270;28;20195;-85
2020/12/27 12:35:18;;;;;;;22.70;21.20;;;;;;;;;;4995320;28;20211;-78
2020/12/27 12:37:45;;;;;;;22.45;21.10;;;;;;;;;;4995414;28;20254;-79
2020/12/27 12:40:12;;;;;;;21.88;20.60;;;;;;;;;;4994908;28;20242;-78
2020/12/27 12:42:39;;;;;;;23.52;21.95;;;;;;;;;;4994891;28;20191;-78
2020/12/27 12:45:07;;;;;;;22.20;20.90;;;;;;;;;;4993573;28;20261;-78
2020/12/27 12:47:35;;;;;;;22.60;21.27;;;;;;;;;;4994824;28;20198;-78
2020/12/27 12:50:02;;;;;;;22.50;21.20;;;;;;;;;;4994964;28;20199;-79
2020/12/27 12:52:29;;;;;;;23.30;21.80;;;;;;;;;;4994741;28;20199;-78
2020/12/27 12:54:57;;;;;;;22.00;20.70;;;;;;;;;;4993673;28;20245;-78
2020/12/27 12:57:24;;;;;;;23.35;21.90;;;;;;;;;;4994133;28;20208;-78
2020/12/27 12:59:51;;;;;;;21.65;20.33;;;;;;;;;;4994287;28;20321;-78
2020/12/27 13:02:19;;;;;;;22.90;21.50;;;;;;;;;;4994311;28;20203;-78
2020/12/27 13:04:45;;;;;;;21.52;20.23;;;;;;;;;;4995469;28;20187;-78
2020/12/27 13:07:12;;;;;;;20.83;19.58;;;;;;;;;;4993924;28;20194;-79
2020/12/27 13:09:39;;;;;;;21.42;20.13;;;;;;;;;;4994325;28;20194;-78
2020/12/27 13:12:06;;;;;;;23.25;21.85;;;;;;;;;;4994723;28;20558;-80
2020/12/27 13:14:33;;;;;;;22.08;20.67;;;;;;;;;;4994564;28;20249;-78
2020/12/27 13:17:00;;;;;;;23.20;21.70;;;;;;;;;;4994270;28;20195;-78
2020/12/27 13:19:28;;;;;;;22.33;21.02;;;;;;;;;;4994215;28;20214;-78
2020/12/27 13:21:55;;;;;;;23.40;21.90;;;;;;;;;;4992992;28;20200;-78
2020/12/27 13:24:22;;;;;;;22.30;20.92;;;;;;;;;;4995925;28;20199;-78
2020/12/27 13:26:49;;;;;;;22.77;21.38;;;;;;;;;;4998212;28;20555;-79
2020/12/27 13:29:16;;;;;;;22.90;21.60;;;;;;;;;;4998464;28;20191;-78
2020/12/27 13:31:43;;;;;;;23.15;21.85;;;;;;;;;;4998057;28;20665;-78
2020/12/27 13:34:10;;;;;;;23.95;22.50;;;;;;;;;;4996690;28;20568;-78
2020/12/27 13:36:38;;;;;;;24.65;23.15;;;;;;;;;;4997936;28;20190;-78
2020/12/27 13:39:05;;;;;;;22.70;21.30;;;;;;;;;;4996740;28;20272;-78
2020/12/27 13:41:34;;;;;;;23.55;22.10;;;;;;;;;;4998628;28;20264;-78
2020/12/27 13:44:01;;;;;;;22.05;20.70;;;;;;;;;;4998318;28;20186;-77
2020/12/27 13:46:28;;;;;;;22.15;20.85;;;;;;;;;;4998218;28;20218;-78
2020/12/27 13:48:55;;;;;;;23.88;22.38;;;;;;;;;;4997927;28;20658;-78
2020/12/27 13:51:22;;;;;;;25.45;23.33;;;;;;;;;;4996687;28;20565;-77
2020/12/27 13:53:50;;;;;;;23.23;21.83;;;;;;;;;;4998003;28;20294;-78
2020/12/27 13:56:23;;;;;;;23.45;22.05;;;;;;;;;;4998054;28;20199;-78
2020/12/27 13:58:50;;;;;;;22.80;21.50;;;;;;;;;;4998314;28;20194;-82
2020/12/27 14:01:17;;;;;;;22.70;21.15;;;;;;;;;;4998317;28;20191;-82
2020/12/27 14:03:44;;;;;;;22.80;21.40;;;;;;;;;;4997894;28;20205;-88
2020/12/27 14:06:11;;;;;;;22.45;21.15;;;;;;;;;;4997449;28;20190;-78
2020/12/27 14:08:37;;;;;;;22.95;21.55;;;;;;;;;;4997485;28;20584;-79
2020/12/27 14:11:08;;;;;;;23.67;22.27;;;;;;;;;;4997751;28;20644;-83
2020/12/27 14:13:35;;;;;;;22.05;20.75;;;;;;;;;;4998131;28;20217;-83
2020/12/27 14:16:02;;;;;;;21.77;20.48;;;;;;;;;;4998441;28;20551;-81
2020/12/27 14:18:29;;;;;;;22.30;21.00;;;;;;;;;;4997405;28;20195;-80
2020/12/27 14:20:56;;;;;;;22.75;21.45;;;;;;;;;;4997451;28;20217;-78
2020/12/27 14:23:23;;;;;;;22.20;20.90;;;;;;;;;;4996570;28;20188;-83
2020/12/27 14:25:51;;;;;;;21.95;20.65;;;;;;;;;;4998045;28;20196;-83